San Bernard — WDF9089 — position and weather

sailwx.info

Track history (hours):
 
Tides and Currents Weather Stations Pressure Air Temp Water Temp Dewpoint Dewpoint Depression Visibility Wind Speed Wind Dir Waves Ship Positions

San Bernard

Owner: Higman Barge Lines, Inc, Orange, TX. More information available from US FCC via Universal Licensing System and Coast Guard Vessel Documentation Center.

Last reported at 2018-Jun-19 01:00 UTC. Time now 2018-Jun-19 01:19 UTC.
Position N 29°60' W 093°55'.

Length 115 m; draft 2.7 m.

Type: . MMSI: 367501660.

Date/timePositionNaut miles runAvg speedWind from/ knotsBaromVisibWave heightAir tempDewpointWater temp
2018-Jun-19 01:00N 29°60' W 093°55'0 0.0
2018-Jun-19 00:30N 29°60' W 093°55'0 0.0
2018-Jun-19 00:01N 29°60' W 093°55'0 0.0
2018-Jun-18 23:30N 29°60' W 093°55'0 0.2
2018-Jun-18 23:01N 29°60' W 093°55'0 0.7
2018-Jun-18 22:30N 29°60' W 093°56'3 5.6
2018-Jun-18 22:01N 29°59' W 093°52'3 5.2
2018-Jun-18 21:31N 29°59' W 093°49'3 5.1
2018-Jun-18 21:01N 29°60' W 093°47'0 0.3
2018-Jun-18 20:31N 29°60' W 093°47'3 5.4
2018-Jun-18 20:01N 30°02' W 093°44'3 5.1
2018-Jun-18 19:29N 30°03' W 093°42'3 6.0
2018-Jun-18 19:01N 30°04' W 093°39'3 5.9
2018-Jun-18 18:30N 30°04' W 093°35'3 6.2
2018-Jun-18 18:00N 30°04' W 093°32'3 6.5
2018-Jun-18 17:31N 30°04' W 093°28'3 5.7
2018-Jun-18 17:01N 30°04' W 093°25'2 4.6
2018-Jun-18 16:31N 30°04' W 093°22'0 0.5
2018-Jun-18 16:01N 30°04' W 093°22'1 2.5
2018-Jun-18 15:30N 30°04' W 093°23'3 6.3
2018-Jun-18 15:01N 30°04' W 093°27'3 7.0
2018-Jun-18 14:30N 30°04' W 093°31'4 7.2
2018-Jun-18 13:59N 30°04' W 093°35'4 7.5
2018-Jun-18 13:30N 30°04' W 093°39'4 7.4
2018-Jun-18 13:00N 30°03' W 093°44'3 6.5
2018-Jun-18 12:31N 30°00' W 093°46'3 6.5
2018-Jun-18 12:00N 29°59' W 093°49'1 2.4
2018-Jun-18 11:25N 29°58' W 093°51'0 0.0
2018-Jun-18 10:58N 29°58' W 093°51'0 0.0
2018-Jun-18 10:28N 29°58' W 093°51'0 0.0
2018-Jun-18 09:58N 29°58' W 093°51'0 0.0
2018-Jun-18 09:28N 29°58' W 093°51'0 0.0
2018-Jun-18 08:58N 29°58' W 093°51'0 0.0
2018-Jun-18 08:28N 29°58' W 093°51'0 0.0
2018-Jun-18 07:58N 29°58' W 093°51'0 0.0
2018-Jun-18 07:28N 29°58' W 093°51'0 0.0
2018-Jun-18 06:58N 29°58' W 093°51'0 0.0
2018-Jun-18 06:28N 29°58' W 093°51'0 0.0
2018-Jun-18 05:58N 29°58' W 093°51'0 0.0
2018-Jun-18 05:28N 29°58' W 093°51'0 0.0
2018-Jun-18 04:58N 29°58' W 093°51'0 0.0
2018-Jun-18 04:28N 29°58' W 093°51'0 0.0
2018-Jun-18 03:58N 29°58' W 093°51'0 0.0
2018-Jun-18 03:28N 29°58' W 093°51'0 0.0
2018-Jun-18 02:58N 29°58' W 093°51'0 0.0
2018-Jun-18 02:28N 29°58' W 093°51'0 0.7
2018-Jun-18 02:00N 29°58' W 093°51'1 1.6
2018-Jun-18 01:31N 29°58' W 093°52'1 1.2
2018-Jun-18 01:00N 29°57' W 093°52'2 3.5
2018-Jun-18 00:30N 29°59' W 093°52'4 7.5
2018-Jun-18 00:00N 29°60' W 093°56'0 0.2
2018-Jun-17 23:30N 29°60' W 093°57'2 3.2
2018-Jun-17 23:00N 29°60' W 093°55'0 0.0
2018-Jun-17 22:30N 29°60' W 093°55'0 0.0
2018-Jun-17 22:00N 29°60' W 093°55'0 0.0
2018-Jun-17 21:30N 29°60' W 093°55'0 0.0
2018-Jun-17 21:00N 29°60' W 093°55'0 0.0
2018-Jun-17 20:30N 29°60' W 093°55'0 0.0
2018-Jun-17 20:00N 29°60' W 093°55'0 0.0
2018-Jun-17 19:30N 29°60' W 093°55'0 0.0
2018-Jun-17 19:00N 29°60' W 093°55'0 0.0
2018-Jun-17 18:30N 29°60' W 093°55'0 0.0
2018-Jun-17 18:00N 29°60' W 093°55'0 0.0
2018-Jun-17 17:30N 29°60' W 093°55'0 0.0
2018-Jun-17 17:00N 29°60' W 093°55'0 0.0
2018-Jun-17 16:30N 29°60' W 093°55'0 0.0
2018-Jun-17 16:00N 29°60' W 093°55'0 0.0
2018-Jun-17 15:30N 29°60' W 093°55'0 0.0
2018-Jun-17 15:00N 29°60' W 093°55'0 0.0
2018-Jun-17 14:30N 29°60' W 093°55'0 0.0
2018-Jun-17 14:00N 29°60' W 093°55'0 0.0
2018-Jun-17 13:30N 29°60' W 093°55'0 0.0
2018-Jun-17 13:00N 29°60' W 093°55'0 0.0
2018-Jun-17 12:30N 29°60' W 093°55'0 0.0
2018-Jun-17 12:00N 29°60' W 093°55'0 0.0
2018-Jun-17 11:30N 29°60' W 093°55'0 0.0
2018-Jun-17 11:00N 29°60' W 093°55'0 0.2
2018-Jun-17 10:31N 29°60' W 093°55'0 0.0
2018-Jun-17 10:00N 29°60' W 093°55'0 0.0
2018-Jun-17 09:30N 29°60' W 093°55'0 0.0
2018-Jun-17 09:00N 29°60' W 093°55'0 0.0
2018-Jun-17 08:30N 29°60' W 093°55'1 1.1
2018-Jun-17 08:00N 29°60' W 093°55'3 5.2
2018-Jun-17 07:30N 30°01' W 093°58'3 5.9
2018-Jun-17 07:00N 30°01' W 094°02'2 4.1
2018-Jun-17 06:30N 30°01' W 093°59'2 4.8
2018-Jun-17 05:59N 29°60' W 093°57'0 0.0
2018-Jun-17 05:29N 29°60' W 093°57'2 3.5
2018-Jun-17 05:00N 29°60' W 093°55'0 0.4
2018-Jun-17 04:29N 29°60' W 093°55'0 0.3
2018-Jun-17 04:00N 29°60' W 093°55'0 0.0
2018-Jun-17 03:30N 29°60' W 093°55'0 0.0
2018-Jun-17 03:00N 29°60' W 093°55'0 0.0
2018-Jun-17 02:30N 29°60' W 093°55'0 0.0
2018-Jun-17 02:00N 29°60' W 093°55'0 0.0
2018-Jun-17 01:30N 29°60' W 093°55'0 0.0
2018-Jun-17 01:00N 29°60' W 093°55'0 0.0
2018-Jun-17 00:30N 29°60' W 093°55'0 0.0
2018-Jun-17 00:00N 29°60' W 093°55'0 0.0
2018-Jun-16 23:30N 29°60' W 093°55'0 0.0
2018-Jun-16 23:00N 29°60' W 093°55'0 0.0
2018-Jun-16 22:30N 29°60' W 093°55'0 0.0
2018-Jun-16 22:00N 29°60' W 093°55'0 0.0
2018-Jun-16 21:30N 29°60' W 093°55'0 0.0
2018-Jun-16 21:00N 29°60' W 093°55'0 0.0
2018-Jun-16 20:30N 29°60' W 093°55'0 0.0
2018-Jun-16 20:01N 29°60' W 093°55'1 2.3
2018-Jun-16 19:30N 29°59' W 093°54'2 4.8
2018-Jun-16 19:00N 29°58' W 093°51'2 5.0
2018-Jun-16 18:31N 29°55' W 093°53'0 0.0
2018-Jun-16 18:01N 29°55' W 093°53'3 6.3
2018-Jun-16 17:31N 29°53' W 093°55'4 8.0
2018-Jun-16 17:00N 29°50' W 093°58'0 0.1
2018-Jun-16 16:30N 29°50' W 093°58'2 4.7
2018-Jun-16 16:01N 29°52' W 093°56'3 5.6
2018-Jun-16 15:30N 29°54' W 093°54'3 5.2
2018-Jun-16 15:00N 29°56' W 093°52'2 3.3
2018-Jun-16 14:30N 29°57' W 093°52'2 4.0
2018-Jun-16 14:00N 29°59' W 093°53'2 3.4
2018-Jun-16 13:30N 29°60' W 093°55'0 0.1
2018-Jun-16 13:00N 29°60' W 093°55'0 0.0
2018-Jun-16 12:30N 29°60' W 093°55'0 0.2
2018-Jun-16 11:58N 29°60' W 093°55'0 0.0
2018-Jun-16 11:28N 29°60' W 093°55'0 0.0
2018-Jun-16 11:00N 29°60' W 093°55'0 0.0
2018-Jun-16 10:30N 29°60' W 093°55'0 0.0
2018-Jun-16 10:00N 29°60' W 093°55'0 0.0
2018-Jun-16 09:31N 29°60' W 093°55'0 0.0
2018-Jun-16 09:01N 29°60' W 093°55'0 0.8
2018-Jun-16 08:30N 29°59' W 093°55'1 2.9
2018-Jun-16 08:01N 29°60' W 093°56'3 6.2
2018-Jun-16 07:31N 30°01' W 093°59'2 3.6
2018-Jun-16 07:01N 30°01' W 094°01'0 0.2
2018-Jun-16 06:29N 30°01' W 094°02'0 0.6
2018-Jun-16 06:01N 30°01' W 094°01'3 6.3
2018-Jun-16 05:30N 30°01' W 093°58'2 4.6
2018-Jun-16 05:01N 29°60' W 093°55'0 0.5
2018-Jun-16 04:30N 29°60' W 093°55'0 0.0
2018-Jun-16 04:01N 29°60' W 093°55'1 2.3
2018-Jun-16 03:31N 29°59' W 093°54'3 5.2
2018-Jun-16 03:00N 29°58' W 093°51'0 0.9
2018-Jun-16 02:31N 29°58' W 093°51'2 4.7
2018-Jun-16 02:01N 29°59' W 093°48'4 8.0
2018-Jun-16 01:31N 30°01' W 093°44'2 4.2
2018-Jun-16 01:00N 30°04' W 093°44'0 0.3
2018-Jun-16 00:29N 30°03' W 093°44'1 1.3
2018-Jun-16 00:01N 30°03' W 093°44'3 6.9
2018-Jun-15 23:31N 30°00' W 093°46'4 7.5
2018-Jun-15 23:00N 29°59' W 093°50'1 1.9
2018-Jun-15 22:30N 29°58' W 093°51'0 0.0
2018-Jun-15 22:00N 29°58' W 093°51'0 0.0
2018-Jun-15 21:30N 29°58' W 093°51'0 0.0
2018-Jun-15 21:00N 29°58' W 093°51'0 0.0
2018-Jun-15 20:30N 29°58' W 093°51'0 0.0
2018-Jun-15 20:00N 29°58' W 093°51'1 1.4
2018-Jun-15 19:30N 29°58' W 093°51'0 0.3
2018-Jun-15 19:01N 29°58' W 093°51'1 1.1
2018-Jun-15 18:30N 29°58' W 093°51'0 0.0
2018-Jun-15 18:00N 29°58' W 093°51'0 0.0
2018-Jun-15 17:30N 29°58' W 093°51'0 0.0
2018-Jun-15 17:00N 29°58' W 093°51'0 0.0
2018-Jun-15 16:30N 29°58' W 093°51'0 0.0
2018-Jun-15 16:00N 29°58' W 093°51'0 0.0
2018-Jun-15 15:30N 29°58' W 093°51'1 1.3
2018-Jun-15 15:00N 29°58' W 093°51'1 1.7
2018-Jun-15 14:28N 29°58' W 093°51'0 0.2
2018-Jun-15 14:00N 29°58' W 093°51'0 0.6
2018-Jun-15 13:30N 29°58' W 093°51'0 0.2
2018-Jun-15 13:00N 29°58' W 093°51'0 0.0
2018-Jun-15 12:30N 29°58' W 093°51'0 0.0
2018-Jun-15 12:00N 29°58' W 093°51'0 0.0
2018-Jun-15 11:30N 29°58' W 093°51'0 0.0
2018-Jun-15 11:00N 29°58' W 093°51'0 0.0
2018-Jun-15 10:29N 29°58' W 093°51'0 0.0
2018-Jun-15 10:00N 29°58' W 093°51'0 0.0
2018-Jun-15 09:30N 29°58' W 093°51'0 0.0
2018-Jun-15 08:58N 29°58' W 093°51'0 0.0
2018-Jun-15 08:30N 29°58' W 093°51'0 0.0
2018-Jun-15 08:00N 29°58' W 093°51'0 0.0
2018-Jun-15 07:29N 29°58' W 093°51'0 0.0
2018-Jun-15 06:59N 29°58' W 093°51'0 0.0
2018-Jun-15 06:30N 29°58' W 093°51'0 0.0
2018-Jun-15 05:58N 29°58' W 093°51'0 0.0
2018-Jun-15 05:26N 29°58' W 093°51'0 0.0
2018-Jun-15 05:00N 29°58' W 093°51'0 0.0
2018-Jun-15 04:30N 29°58' W 093°51'0 0.0
2018-Jun-15 03:59N 29°58' W 093°51'0 0.0
2018-Jun-15 03:30N 29°58' W 093°51'0 0.0
2018-Jun-15 03:00N 29°58' W 093°51'0 0.0
2018-Jun-15 02:30N 29°58' W 093°51'0 0.0
2018-Jun-15 02:00N 29°58' W 093°51'1 2.5
2018-Jun-15 01:30N 29°59' W 093°50'3 6.2
2018-Jun-15 01:00N 29°60' W 093°46'3 6.6
2018-Jun-15 00:30N 30°02' W 093°44'3 6.0
2018-Jun-15 00:00N 30°04' W 093°41'3 6.1
2018-Jun-14 23:30N 30°04' W 093°37'3 5.8
2018-Jun-14 22:59N 30°04' W 093°34'3 5.9
2018-Jun-14 22:30N 30°04' W 093°31'3 5.9
2018-Jun-14 22:00N 30°04' W 093°27'3 5.9
2018-Jun-14 21:30N 30°04' W 093°24'3 5.2
2018-Jun-14 21:00N 30°04' W 093°21'2 2.9
2018-Jun-14 20:28N 30°05' W 093°20'0 0.0
2018-Jun-14 19:58N 30°05' W 093°20'0 0.0
2018-Jun-14 19:28N 30°05' W 093°20'0 0.0
2018-Jun-14 18:58N 30°05' W 093°20'0 0.0
2018-Jun-14 18:28N 30°05' W 093°20'0 0.0
2018-Jun-14 17:58N 30°05' W 093°20'0 0.0
2018-Jun-14 17:28N 30°05' W 093°20'0 0.0
2018-Jun-14 16:58N 30°05' W 093°20'0 0.0
2018-Jun-14 16:28N 30°05' W 093°20'0 0.0
2018-Jun-14 15:58N 30°05' W 093°20'0 0.0
2018-Jun-14 15:28N 30°05' W 093°20'0 0.0
2018-Jun-14 14:58N 30°05' W 093°20'0 0.0
2018-Jun-14 14:28N 30°05' W 093°20'0 0.0
2018-Jun-14 13:58N 30°05' W 093°20'0 0.0
2018-Jun-14 13:28N 30°05' W 093°20'0 0.0
2018-Jun-14 12:58N 30°05' W 093°20'0 0.0
2018-Jun-14 12:28N 30°05' W 093°20'0 0.0
2018-Jun-14 11:58N 30°05' W 093°20'0 0.0
2018-Jun-14 11:28N 30°05' W 093°20'0 0.0
2018-Jun-14 10:58N 30°05' W 093°20'0 0.0
2018-Jun-14 10:28N 30°05' W 093°20'0 0.0
2018-Jun-14 09:58N 30°05' W 093°20'0 0.0
2018-Jun-14 09:28N 30°05' W 093°20'0 0.0
2018-Jun-14 08:58N 30°05' W 093°20'0 0.0
2018-Jun-14 08:28N 30°05' W 093°20'0 0.0
2018-Jun-14 07:58N 30°05' W 093°20'0 0.0
2018-Jun-14 07:28N 30°05' W 093°20'0 0.0
2018-Jun-14 06:58N 30°05' W 093°20'0 0.0
2018-Jun-14 06:28N 30°05' W 093°20'0 0.0
2018-Jun-14 05:58N 30°05' W 093°20'0 0.0
2018-Jun-14 05:28N 30°05' W 093°20'0 0.0
2018-Jun-14 04:58N 30°05' W 093°20'0 0.0
2018-Jun-14 04:28N 30°05' W 093°20'0 0.0
2018-Jun-14 03:58N 30°05' W 093°20'0 0.0
2018-Jun-14 03:28N 30°05' W 093°20'0 0.0
2018-Jun-14 02:58N 30°05' W 093°20'0 0.0
2018-Jun-14 02:28N 30°05' W 093°20'0 0.0
2018-Jun-14 01:58N 30°05' W 093°20'0 0.0
2018-Jun-14 01:28N 30°05' W 093°20'0 0.0
2018-Jun-14 00:58N 30°05' W 093°20'0 0.0
2018-Jun-14 00:28N 30°05' W 093°20'0 0.0
2018-Jun-13 23:58N 30°05' W 093°20'0 0.0
2018-Jun-13 23:28N 30°05' W 093°20'0 0.0
2018-Jun-13 22:58N 30°05' W 093°20'0 0.0
2018-Jun-13 22:28N 30°05' W 093°20'0 0.0
2018-Jun-13 21:58N 30°05' W 093°20'0 0.0
2018-Jun-13 21:28N 30°05' W 093°20'0 0.0
2018-Jun-13 20:58N 30°05' W 093°20'0 0.0
2018-Jun-13 20:28N 30°05' W 093°20'0 0.0
2018-Jun-13 19:58N 30°05' W 093°20'0 0.0
2018-Jun-13 19:28N 30°05' W 093°20'0 0.0
2018-Jun-13 18:58N 30°05' W 093°20'0 0.0
2018-Jun-13 18:28N 30°05' W 093°20'0 0.0
2018-Jun-13 17:59N 30°05' W 093°20'0 0.5
2018-Jun-13 17:28N 30°05' W 093°20'0 0.6
2018-Jun-13 17:00N 30°05' W 093°20'0 0.2
2018-Jun-13 16:28N 30°05' W 093°20'0 0.0
2018-Jun-13 15:58N 30°05' W 093°20'0 0.0
2018-Jun-13 15:28N 30°05' W 093°20'0 0.0
2018-Jun-13 14:58N 30°05' W 093°20'0 0.0
2018-Jun-13 14:28N 30°05' W 093°20'0 0.0
2018-Jun-13 13:58N 30°05' W 093°20'0 0.0
2018-Jun-13 13:28N 30°05' W 093°20'0 0.0
2018-Jun-13 12:58N 30°05' W 093°20'0 0.0
2018-Jun-13 12:28N 30°05' W 093°20'0 0.0
2018-Jun-13 11:58N 30°05' W 093°20'0 0.0
2018-Jun-13 11:28N 30°05' W 093°20'0 0.0
2018-Jun-13 10:58N 30°05' W 093°20'0 0.0
2018-Jun-13 10:28N 30°05' W 093°20'0 0.0
2018-Jun-13 09:58N 30°05' W 093°20'0 0.0
2018-Jun-13 09:28N 30°05' W 093°20'0 0.0
2018-Jun-13 08:58N 30°05' W 093°20'0 0.0
2018-Jun-13 08:28N 30°05' W 093°20'0 0.0
2018-Jun-13 07:58N 30°05' W 093°20'0 0.0
2018-Jun-13 07:28N 30°05' W 093°20'0 0.0
2018-Jun-13 06:58N 30°05' W 093°20'0 0.0
2018-Jun-13 06:28N 30°05' W 093°20'0 0.0
2018-Jun-13 05:58N 30°05' W 093°20'0 0.0
2018-Jun-13 05:28N 30°05' W 093°20'0 0.0
2018-Jun-13 04:58N 30°05' W 093°20'0 0.0
2018-Jun-13 04:28N 30°05' W 093°20'0 0.0
2018-Jun-13 03:58N 30°05' W 093°20'0 0.0
2018-Jun-13 03:28N 30°05' W 093°20'0 0.0
2018-Jun-13 02:58N 30°05' W 093°20'0 0.0
2018-Jun-13 02:28N 30°05' W 093°20'0 0.1
2018-Jun-13 01:58N 30°05' W 093°20'0 0.1
2018-Jun-13 01:28N 30°05' W 093°20'0 0.0
2018-Jun-13 00:58N 30°05' W 093°20'0 0.0
2018-Jun-13 00:28N 30°05' W 093°20'0 0.0
2018-Jun-12 23:58N 30°05' W 093°20'0 0.0
2018-Jun-12 23:28N 30°05' W 093°20'0 0.0
2018-Jun-12 22:58N 30°05' W 093°20'0 0.0
2018-Jun-12 22:28N 30°05' W 093°20'0 0.0
2018-Jun-12 21:58N 30°05' W 093°20'0 0.0
2018-Jun-12 21:28N 30°05' W 093°20'0 0.0
2018-Jun-12 20:58N 30°05' W 093°20'0 0.0
2018-Jun-12 20:28N 30°05' W 093°20'0 0.0
2018-Jun-12 19:58N 30°05' W 093°20'0 0.0
2018-Jun-12 19:28N 30°05' W 093°20'0 0.0
2018-Jun-12 18:58N 30°05' W 093°20'0 0.0
2018-Jun-12 18:28N 30°05' W 093°20'0 0.0
2018-Jun-12 17:58N 30°05' W 093°20'0 0.0
2018-Jun-12 17:28N 30°05' W 093°20'0 0.0
2018-Jun-12 16:59N 30°05' W 093°20'2 3.9
2018-Jun-12 16:29N 30°04' W 093°21'0 0.0
2018-Jun-12 15:52N 30°04' W 093°21'2 5.5
2018-Jun-12 15:31N 30°05' W 093°20'0 0.1
2018-Jun-12 14:59N 30°05' W 093°20'0 0.0
2018-Jun-12 14:29N 30°05' W 093°20'0 0.0
2018-Jun-12 13:59N 30°05' W 093°20'0 0.0
2018-Jun-12 13:29N 30°05' W 093°20'0 0.0
2018-Jun-12 12:59N 30°05' W 093°20'0 0.0
2018-Jun-12 12:29N 30°05' W 093°20'0 0.0
2018-Jun-12 11:59N 30°05' W 093°20'0 0.1
2018-Jun-12 11:29N 30°05' W 093°20'0 0.0
2018-Jun-12 10:59N 30°05' W 093°20'0 0.0
2018-Jun-12 10:29N 30°05' W 093°20'0 0.0
2018-Jun-12 09:59N 30°05' W 093°20'0 0.0
2018-Jun-12 09:30N 30°05' W 093°20'0 0.0
2018-Jun-12 08:59N 30°05' W 093°20'0 0.0
2018-Jun-12 08:30N 30°05' W 093°20'0 0.0
2018-Jun-12 07:59N 30°05' W 093°20'0 0.0
2018-Jun-12 07:29N 30°05' W 093°20'0 0.0
2018-Jun-12 06:59N 30°05' W 093°20'0 0.0
2018-Jun-12 06:30N 30°05' W 093°20'0 0.0
2018-Jun-12 05:59N 30°05' W 093°20'0 0.0
2018-Jun-12 05:29N 30°05' W 093°20'0 0.0
2018-Jun-12 04:59N 30°05' W 093°20'0 0.0
2018-Jun-12 04:29N 30°05' W 093°20'0 0.0
2018-Jun-12 03:59N 30°05' W 093°20'0 0.0
2018-Jun-12 03:29N 30°05' W 093°20'0 0.0
2018-Jun-12 02:59N 30°05' W 093°20'0 0.0
2018-Jun-12 02:29N 30°05' W 093°20'0 0.0
2018-Jun-12 01:59N 30°05' W 093°20'0 0.0
2018-Jun-12 01:29N 30°05' W 093°20'0 0.0
2018-Jun-12 01:00N 30°05' W 093°20'0 0.0
2018-Jun-12 00:29N 30°05' W 093°20'0 0.0
2018-Jun-11 23:59N 30°05' W 093°20'0 0.0
2018-Jun-11 23:29N 30°05' W 093°20'0 0.0
2018-Jun-11 22:59N 30°05' W 093°20'0 0.0
2018-Jun-11 22:29N 30°05' W 093°20'0 0.0
2018-Jun-11 21:59N 30°05' W 093°20'0 0.0
2018-Jun-11 21:29N 30°05' W 093°20'0 0.0
2018-Jun-11 21:00N 30°05' W 093°20'0 0.0
2018-Jun-11 20:29N 30°05' W 093°20'0 0.0
2018-Jun-11 19:59N 30°05' W 093°20'0 0.0
2018-Jun-11 19:29N 30°05' W 093°20'0 0.0
2018-Jun-11 18:59N 30°05' W 093°20'0 0.0
2018-Jun-11 18:29N 30°05' W 093°20'0 0.0
2018-Jun-11 18:00N 30°05' W 093°20'0 0.0
2018-Jun-11 17:27N 30°05' W 093°20'0 0.0
2018-Jun-11 16:59N 30°05' W 093°20'0 0.0
2018-Jun-11 16:29N 30°05' W 093°20'0 0.0
2018-Jun-11 15:59N 30°05' W 093°20'0 0.0
2018-Jun-11 15:29N 30°05' W 093°20'0 0.0
2018-Jun-11 14:59N 30°05' W 093°20'0 0.0
2018-Jun-11 14:29N 30°05' W 093°20'0 0.0
2018-Jun-11 13:59N 30°05' W 093°20'0 0.0
2018-Jun-11 13:29N 30°05' W 093°20'0 0.0
2018-Jun-11 12:59N 30°05' W 093°20'0 0.0
2018-Jun-11 12:29N 30°05' W 093°20'0 0.0
2018-Jun-11 11:59N 30°05' W 093°20'0 0.0
2018-Jun-11 11:29N 30°05' W 093°20'0 0.0
2018-Jun-11 10:59N 30°05' W 093°20'0 0.0
2018-Jun-11 10:29N 30°05' W 093°20'0 0.0
2018-Jun-11 09:59N 30°05' W 093°20'0 0.0
2018-Jun-11 09:29N 30°05' W 093°20'0 0.0
2018-Jun-11 08:59N 30°05' W 093°20'0 0.0
2018-Jun-11 08:29N 30°05' W 093°20'0 0.0
2018-Jun-11 07:59N 30°05' W 093°20'0 0.0
2018-Jun-11 07:29N 30°05' W 093°20'0 0.0
2018-Jun-11 06:59N 30°05' W 093°20'0 0.0
2018-Jun-11 06:29N 30°05' W 093°20'0 0.0
2018-Jun-11 05:59N 30°05' W 093°20'0 0.0
2018-Jun-11 05:29N 30°05' W 093°20'0 0.0
2018-Jun-11 04:59N 30°05' W 093°20'0 0.0
2018-Jun-11 04:29N 30°05' W 093°20'0 0.0
2018-Jun-11 03:59N 30°05' W 093°20'0 0.0
2018-Jun-11 03:29N 30°05' W 093°20'0 0.0
2018-Jun-11 02:59N 30°05' W 093°20'0 0.0
2018-Jun-11 02:29N 30°05' W 093°20'0 0.0
2018-Jun-11 01:59N 30°05' W 093°20'0 0.0
2018-Jun-11 01:30N 30°05' W 093°20'0 0.0
2018-Jun-11 01:00N 30°05' W 093°20'0 0.0
2018-Jun-11 00:30N 30°05' W 093°20'0 0.0
2018-Jun-11 00:00N 30°05' W 093°20'0 0.1
2018-Jun-10 23:30N 30°05' W 093°20'0 0.0
2018-Jun-10 23:00N 30°05' W 093°20'0 0.2
2018-Jun-10 22:30N 30°05' W 093°20'1 2.6
2018-Jun-10 22:00N 30°04' W 093°21'2 5.0
2018-Jun-10 21:30N 30°04' W 093°24'3 5.9
2018-Jun-10 21:00N 30°04' W 093°27'3 5.8
2018-Jun-10 20:30N 30°04' W 093°30'3 5.6
2018-Jun-10 19:59N 30°04' W 093°34'3 5.8
2018-Jun-10 19:28N 30°04' W 093°37'3 5.6
2018-Jun-10 18:58N 30°04' W 093°40'3 5.9
2018-Jun-10 18:30N 30°03' W 093°43'3 6.1
2018-Jun-10 18:00N 30°01' W 093°46'3 6.5
2018-Jun-10 17:30N 29°59' W 093°49'3 5.8
2018-Jun-10 17:00N 29°59' W 093°52'2 4.4
2018-Jun-10 16:30N 29°60' W 093°55'0 0.0
2018-Jun-10 16:00N 29°60' W 093°55'0 0.0
2018-Jun-10 15:30N 29°60' W 093°55'0 0.0
2018-Jun-10 15:00N 29°60' W 093°55'0 0.0
2018-Jun-10 14:30N 29°60' W 093°55'0 0.0
2018-Jun-10 13:30N 29°60' W 093°55'0 0.0
2018-Jun-10 13:00N 29°60' W 093°55'0 0.0
2018-Jun-10 12:30N 29°60' W 093°55'0 0.0
2018-Jun-10 12:00N 29°60' W 093°55'0 0.0
2018-Jun-10 11:30N 29°60' W 093°55'0 0.0
2018-Jun-10 11:00N 29°60' W 093°55'0 0.0
2018-Jun-10 10:30N 29°60' W 093°55'0 0.0
2018-Jun-10 10:00N 29°60' W 093°55'0 0.0
2018-Jun-10 09:30N 29°60' W 093°55'0 0.0
2018-Jun-10 09:00N 29°60' W 093°55'0 0.0
2018-Jun-10 08:30N 29°60' W 093°55'0 0.0
2018-Jun-10 08:00N 29°60' W 093°55'0 0.0
2018-Jun-10 07:30N 29°60' W 093°55'0 0.0
2018-Jun-10 07:00N 29°60' W 093°55'0 0.0
2018-Jun-10 06:30N 29°60' W 093°55'0 0.0
2018-Jun-10 06:00N 29°60' W 093°55'0 0.0
2018-Jun-10 05:30N 29°60' W 093°55'0 0.0
2018-Jun-10 05:00N 29°60' W 093°55'0 0.0
2018-Jun-10 04:30N 29°60' W 093°55'0 0.0
2018-Jun-10 04:00N 29°60' W 093°55'0 0.0
2018-Jun-10 03:30N 29°60' W 093°55'0 0.0
2018-Jun-10 03:00N 29°60' W 093°55'0 0.0
2018-Jun-10 02:30N 29°60' W 093°55'0 0.0
2018-Jun-10 02:00N 29°60' W 093°55'0 0.0
2018-Jun-10 01:30N 29°60' W 093°55'0 0.0
2018-Jun-10 01:00N 29°60' W 093°55'0 0.0
2018-Jun-10 00:30N 29°60' W 093°55'0 0.0
2018-Jun-10 00:00N 29°60' W 093°55'0 0.0
2018-Jun-09 23:30N 29°60' W 093°55'0 0.0
2018-Jun-09 23:00N 29°60' W 093°55'0 0.0
2018-Jun-09 22:30N 29°60' W 093°55'0 0.0
2018-Jun-09 22:00N 29°60' W 093°55'1 1.8
2018-Jun-09 21:30N 29°59' W 093°54'2 4.6
2018-Jun-09 21:00N 29°58' W 093°51'0 0.0
2018-Jun-09 20:30N 29°58' W 093°51'0 0.0
2018-Jun-09 20:00N 29°58' W 093°51'0 0.0
2018-Jun-09 19:30N 29°58' W 093°51'0 0.0
2018-Jun-09 19:00N 29°58' W 093°51'2 4.0
2018-Jun-09 18:30N 29°59' W 093°53'1 2.5
2018-Jun-09 18:00N 29°60' W 093°55'0 0.0
2018-Jun-09 17:30N 29°60' W 093°55'0 0.0
2018-Jun-09 17:00N 29°60' W 093°55'0 0.0
2018-Jun-09 16:30N 29°60' W 093°55'0 0.0
2018-Jun-09 16:00N 29°60' W 093°55'0 0.0
2018-Jun-09 15:30N 29°60' W 093°55'0 0.0
2018-Jun-09 14:30N 29°60' W 093°55'0 0.0
2018-Jun-09 14:00N 29°60' W 093°55'0 0.0
2018-Jun-09 13:30N 29°60' W 093°55'0 0.0
2018-Jun-09 13:00N 29°60' W 093°55'0 0.0
2018-Jun-09 12:30N 29°60' W 093°55'0 0.0
2018-Jun-09 12:00N 29°60' W 093°55'0 0.0
2018-Jun-09 11:30N 29°60' W 093°55'0 0.0
2018-Jun-09 11:00N 29°60' W 093°55'0 0.0
2018-Jun-09 10:30N 29°60' W 093°55'0 0.0
2018-Jun-09 10:00N 29°60' W 093°55'0 0.0
2018-Jun-09 09:30N 29°60' W 093°55'0 0.0
2018-Jun-09 09:00N 29°60' W 093°55'0 0.0
2018-Jun-09 08:30N 29°60' W 093°55'0 0.0
2018-Jun-09 08:00N 29°60' W 093°55'0 0.0
2018-Jun-09 07:30N 29°60' W 093°55'0 0.0
2018-Jun-09 07:00N 29°60' W 093°55'0 0.0
2018-Jun-09 06:30N 29°60' W 093°55'0 0.0
2018-Jun-09 06:00N 29°60' W 093°55'0 0.0
2018-Jun-09 05:30N 29°60' W 093°55'0 0.0
2018-Jun-09 05:00N 29°60' W 093°55'0 0.0
2018-Jun-09 04:30N 29°60' W 093°55'0 0.0
2018-Jun-09 04:00N 29°60' W 093°55'0 0.0
2018-Jun-09 03:30N 29°60' W 093°55'0 0.0
2018-Jun-09 03:00N 29°60' W 093°55'0 0.0
2018-Jun-09 02:30N 29°60' W 093°55'0 0.9
2018-Jun-09 02:00N 29°59' W 093°54'3 6.0
2018-Jun-09 01:31N 30°01' W 093°57'  
Track history (hours):
 
Tides and Currents Weather Stations Pressure Air Temp Water Temp Dewpoint Dewpoint Depression Visibility Wind Speed Wind Dir Waves Ship Positions

San Bernard

Owner: Higman Barge Lines, Inc, Orange, TX. More information available from US FCC via Universal Licensing System and Coast Guard Vessel Documentation Center.

Last reported at 2018-Jun-19 01:00 UTC. Time now 2018-Jun-19 01:19 UTC.
Position N 29°60' W 093°55'.

Length 115 m; draft 2.7 m.

Type: . MMSI: 367501660.

Date/timePositionNaut miles runAvg speedWind from/ knotsBaromVisibWave heightAir tempDewpointWater temp
2018-Jun-19 01:00N 29°60' W 093°55'0 0.0
2018-Jun-19 00:30N 29°60' W 093°55'0 0.0
2018-Jun-19 00:01N 29°60' W 093°55'0 0.0
2018-Jun-18 23:30N 29°60' W 093°55'0 0.2
2018-Jun-18 23:01N 29°60' W 093°55'0 0.7
2018-Jun-18 22:30N 29°60' W 093°56'3 5.6
2018-Jun-18 22:01N 29°59' W 093°52'3 5.2
2018-Jun-18 21:31N 29°59' W 093°49'3 5.1
2018-Jun-18 21:01N 29°60' W 093°47'0 0.3
2018-Jun-18 20:31N 29°60' W 093°47'3 5.4
2018-Jun-18 20:01N 30°02' W 093°44'3 5.1
2018-Jun-18 19:29N 30°03' W 093°42'3 6.0
2018-Jun-18 19:01N 30°04' W 093°39'3 5.9
2018-Jun-18 18:30N 30°04' W 093°35'3 6.2
2018-Jun-18 18:00N 30°04' W 093°32'3 6.5
2018-Jun-18 17:31N 30°04' W 093°28'3 5.7
2018-Jun-18 17:01N 30°04' W 093°25'2 4.6
2018-Jun-18 16:31N 30°04' W 093°22'0 0.5
2018-Jun-18 16:01N 30°04' W 093°22'1 2.5
2018-Jun-18 15:30N 30°04' W 093°23'3 6.3
2018-Jun-18 15:01N 30°04' W 093°27'3 7.0
2018-Jun-18 14:30N 30°04' W 093°31'4 7.2
2018-Jun-18 13:59N 30°04' W 093°35'4 7.5
2018-Jun-18 13:30N 30°04' W 093°39'4 7.4
2018-Jun-18 13:00N 30°03' W 093°44'3 6.5
2018-Jun-18 12:31N 30°00' W 093°46'3 6.5
2018-Jun-18 12:00N 29°59' W 093°49'1 2.4
2018-Jun-18 11:25N 29°58' W 093°51'0 0.0
2018-Jun-18 10:58N 29°58' W 093°51'0 0.0
2018-Jun-18 10:28N 29°58' W 093°51'0 0.0
2018-Jun-18 09:58N 29°58' W 093°51'0 0.0
2018-Jun-18 09:28N 29°58' W 093°51'0 0.0
2018-Jun-18 08:58N 29°58' W 093°51'0 0.0
2018-Jun-18 08:28N 29°58' W 093°51'0 0.0
2018-Jun-18 07:58N 29°58' W 093°51'0 0.0
2018-Jun-18 07:28N 29°58' W 093°51'0 0.0
2018-Jun-18 06:58N 29°58' W 093°51'0 0.0
2018-Jun-18 06:28N 29°58' W 093°51'0 0.0
2018-Jun-18 05:58N 29°58' W 093°51'0 0.0
2018-Jun-18 05:28N 29°58' W 093°51'0 0.0
2018-Jun-18 04:58N 29°58' W 093°51'0 0.0
2018-Jun-18 04:28N 29°58' W 093°51'0 0.0
2018-Jun-18 03:58N 29°58' W 093°51'0 0.0
2018-Jun-18 03:28N 29°58' W 093°51'0 0.0
2018-Jun-18 02:58N 29°58' W 093°51'0 0.0
2018-Jun-18 02:28N 29°58' W 093°51'0 0.7
2018-Jun-18 02:00N 29°58' W 093°51'1 1.6
2018-Jun-18 01:31N 29°58' W 093°52'1 1.2
2018-Jun-18 01:00N 29°57' W 093°52'2 3.5
2018-Jun-18 00:30N 29°59' W 093°52'4 7.5
2018-Jun-18 00:00N 29°60' W 093°56'0 0.2
2018-Jun-17 23:30N 29°60' W 093°57'2 3.2
2018-Jun-17 23:00N 29°60' W 093°55'0 0.0
2018-Jun-17 22:30N 29°60' W 093°55'0 0.0
2018-Jun-17 22:00N 29°60' W 093°55'0 0.0
2018-Jun-17 21:30N 29°60' W 093°55'0 0.0
2018-Jun-17 21:00N 29°60' W 093°55'0 0.0
2018-Jun-17 20:30N 29°60' W 093°55'0 0.0
2018-Jun-17 20:00N 29°60' W 093°55'0 0.0
2018-Jun-17 19:30N 29°60' W 093°55'0 0.0
2018-Jun-17 19:00N 29°60' W 093°55'0 0.0
2018-Jun-17 18:30N 29°60' W 093°55'0 0.0
2018-Jun-17 18:00N 29°60' W 093°55'0 0.0
2018-Jun-17 17:30N 29°60' W 093°55'0 0.0
2018-Jun-17 17:00N 29°60' W 093°55'0 0.0
2018-Jun-17 16:30N 29°60' W 093°55'0 0.0
2018-Jun-17 16:00N 29°60' W 093°55'0 0.0
2018-Jun-17 15:30N 29°60' W 093°55'0 0.0
2018-Jun-17 15:00N 29°60' W 093°55'0 0.0
2018-Jun-17 14:30N 29°60' W 093°55'0 0.0
2018-Jun-17 14:00N 29°60' W 093°55'0 0.0
2018-Jun-17 13:30N 29°60' W 093°55'0 0.0
2018-Jun-17 13:00N 29°60' W 093°55'0 0.0
2018-Jun-17 12:30N 29°60' W 093°55'0 0.0
2018-Jun-17 12:00N 29°60' W 093°55'0 0.0
2018-Jun-17 11:30N 29°60' W 093°55'0 0.0
2018-Jun-17 11:00N 29°60' W 093°55'0 0.2
2018-Jun-17 10:31N 29°60' W 093°55'0 0.0
2018-Jun-17 10:00N 29°60' W 093°55'0 0.0
2018-Jun-17 09:30N 29°60' W 093°55'0 0.0
2018-Jun-17 09:00N 29°60' W 093°55'0 0.0
2018-Jun-17 08:30N 29°60' W 093°55'1 1.1
2018-Jun-17 08:00N 29°60' W 093°55'3 5.2
2018-Jun-17 07:30N 30°01' W 093°58'3 5.9
2018-Jun-17 07:00N 30°01' W 094°02'2 4.1
2018-Jun-17 06:30N 30°01' W 093°59'2 4.8
2018-Jun-17 05:59N 29°60' W 093°57'0 0.0
2018-Jun-17 05:29N 29°60' W 093°57'2 3.5
2018-Jun-17 05:00N 29°60' W 093°55'0 0.4
2018-Jun-17 04:29N 29°60' W 093°55'0 0.3
2018-Jun-17 04:00N 29°60' W 093°55'0 0.0
2018-Jun-17 03:30N 29°60' W 093°55'0 0.0
2018-Jun-17 03:00N 29°60' W 093°55'0 0.0
2018-Jun-17 02:30N 29°60' W 093°55'0 0.0
2018-Jun-17 02:00N 29°60' W 093°55'0 0.0
2018-Jun-17 01:30N 29°60' W 093°55'0 0.0
2018-Jun-17 01:00N 29°60' W 093°55'0 0.0
2018-Jun-17 00:30N 29°60' W 093°55'0 0.0
2018-Jun-17 00:00N 29°60' W 093°55'0 0.0
2018-Jun-16 23:30N 29°60' W 093°55'0 0.0
2018-Jun-16 23:00N 29°60' W 093°55'0 0.0
2018-Jun-16 22:30N 29°60' W 093°55'0 0.0
2018-Jun-16 22:00N 29°60' W 093°55'0 0.0
2018-Jun-16 21:30N 29°60' W 093°55'0 0.0
2018-Jun-16 21:00N 29°60' W 093°55'0 0.0
2018-Jun-16 20:30N 29°60' W 093°55'0 0.0
2018-Jun-16 20:01N 29°60' W 093°55'1 2.3
2018-Jun-16 19:30N 29°59' W 093°54'2 4.8
2018-Jun-16 19:00N 29°58' W 093°51'2 5.0
2018-Jun-16 18:31N 29°55' W 093°53'0 0.0
2018-Jun-16 18:01N 29°55' W 093°53'3 6.3
2018-Jun-16 17:31N 29°53' W 093°55'4 8.0
2018-Jun-16 17:00N 29°50' W 093°58'0 0.1
2018-Jun-16 16:30N 29°50' W 093°58'2 4.7
2018-Jun-16 16:01N 29°52' W 093°56'3 5.6
2018-Jun-16 15:30N 29°54' W 093°54'3 5.2
2018-Jun-16 15:00N 29°56' W 093°52'2 3.3
2018-Jun-16 14:30N 29°57' W 093°52'2 4.0
2018-Jun-16 14:00N 29°59' W 093°53'2 3.4
2018-Jun-16 13:30N 29°60' W 093°55'0 0.1
2018-Jun-16 13:00N 29°60' W 093°55'0 0.0
2018-Jun-16 12:30N 29°60' W 093°55'0 0.2
2018-Jun-16 11:58N 29°60' W 093°55'0 0.0
2018-Jun-16 11:28N 29°60' W 093°55'0 0.0
2018-Jun-16 11:00N 29°60' W 093°55'0 0.0
2018-Jun-16 10:30N 29°60' W 093°55'0 0.0
2018-Jun-16 10:00N 29°60' W 093°55'0 0.0
2018-Jun-16 09:31N 29°60' W 093°55'0 0.0
2018-Jun-16 09:01N 29°60' W 093°55'0 0.8
2018-Jun-16 08:30N 29°59' W 093°55'1 2.9
2018-Jun-16 08:01N 29°60' W 093°56'3 6.2
2018-Jun-16 07:31N 30°01' W 093°59'2 3.6
2018-Jun-16 07:01N 30°01' W 094°01'0 0.2
2018-Jun-16 06:29N 30°01' W 094°02'0 0.6
2018-Jun-16 06:01N 30°01' W 094°01'3 6.3
2018-Jun-16 05:30N 30°01' W 093°58'2 4.6
2018-Jun-16 05:01N 29°60' W 093°55'0 0.5
2018-Jun-16 04:30N 29°60' W 093°55'0 0.0
2018-Jun-16 04:01N 29°60' W 093°55'1 2.3
2018-Jun-16 03:31N 29°59' W 093°54'3 5.2
2018-Jun-16 03:00N 29°58' W 093°51'0 0.9
2018-Jun-16 02:31N 29°58' W 093°51'2 4.7
2018-Jun-16 02:01N 29°59' W 093°48'4 8.0
2018-Jun-16 01:31N 30°01' W 093°44'2 4.2
2018-Jun-16 01:00N 30°04' W 093°44'0 0.3
2018-Jun-16 00:29N 30°03' W 093°44'1 1.3
2018-Jun-16 00:01N 30°03' W 093°44'3 6.9
2018-Jun-15 23:31N 30°00' W 093°46'4 7.5
2018-Jun-15 23:00N 29°59' W 093°50'1 1.9
2018-Jun-15 22:30N 29°58' W 093°51'0 0.0
2018-Jun-15 22:00N 29°58' W 093°51'0 0.0
2018-Jun-15 21:30N 29°58' W 093°51'0 0.0
2018-Jun-15 21:00N 29°58' W 093°51'0 0.0
2018-Jun-15 20:30N 29°58' W 093°51'0 0.0
2018-Jun-15 20:00N 29°58' W 093°51'1 1.4
2018-Jun-15 19:30N 29°58' W 093°51'0 0.3
2018-Jun-15 19:01N 29°58' W 093°51'1 1.1
2018-Jun-15 18:30N 29°58' W 093°51'0 0.0
2018-Jun-15 18:00N 29°58' W 093°51'0 0.0
2018-Jun-15 17:30N 29°58' W 093°51'0 0.0
2018-Jun-15 17:00N 29°58' W 093°51'0 0.0
2018-Jun-15 16:30N 29°58' W 093°51'0 0.0
2018-Jun-15 16:00N 29°58' W 093°51'0 0.0
2018-Jun-15 15:30N 29°58' W 093°51'1 1.3
2018-Jun-15 15:00N 29°58' W 093°51'1 1.7
2018-Jun-15 14:28N 29°58' W 093°51'0 0.2
2018-Jun-15 14:00N 29°58' W 093°51'0 0.6
2018-Jun-15 13:30N 29°58' W 093°51'0 0.2
2018-Jun-15 13:00N 29°58' W 093°51'0 0.0
2018-Jun-15 12:30N 29°58' W 093°51'0 0.0
2018-Jun-15 12:00N 29°58' W 093°51'0 0.0
2018-Jun-15 11:30N 29°58' W 093°51'0 0.0
2018-Jun-15 11:00N 29°58' W 093°51'0 0.0
2018-Jun-15 10:29N 29°58' W 093°51'0 0.0
2018-Jun-15 10:00N 29°58' W 093°51'0 0.0
2018-Jun-15 09:30N 29°58' W 093°51'0 0.0
2018-Jun-15 08:58N 29°58' W 093°51'0 0.0
2018-Jun-15 08:30N 29°58' W 093°51'0 0.0
2018-Jun-15 08:00N 29°58' W 093°51'0 0.0
2018-Jun-15 07:29N 29°58' W 093°51'0 0.0
2018-Jun-15 06:59N 29°58' W 093°51'0 0.0
2018-Jun-15 06:30N 29°58' W 093°51'0 0.0
2018-Jun-15 05:58N 29°58' W 093°51'0 0.0
2018-Jun-15 05:26N 29°58' W 093°51'0 0.0
2018-Jun-15 05:00N 29°58' W 093°51'0 0.0
2018-Jun-15 04:30N 29°58' W 093°51'0 0.0
2018-Jun-15 03:59N 29°58' W 093°51'0 0.0
2018-Jun-15 03:30N 29°58' W 093°51'0 0.0
2018-Jun-15 03:00N 29°58' W 093°51'0 0.0
2018-Jun-15 02:30N 29°58' W 093°51'0 0.0
2018-Jun-15 02:00N 29°58' W 093°51'1 2.5
2018-Jun-15 01:30N 29°59' W 093°50'3 6.2
2018-Jun-15 01:00N 29°60' W 093°46'3 6.6
2018-Jun-15 00:30N 30°02' W 093°44'3 6.0
2018-Jun-15 00:00N 30°04' W 093°41'3 6.1
2018-Jun-14 23:30N 30°04' W 093°37'3 5.8
2018-Jun-14 22:59N 30°04' W 093°34'3 5.9
2018-Jun-14 22:30N 30°04' W 093°31'3 5.9
2018-Jun-14 22:00N 30°04' W 093°27'3 5.9
2018-Jun-14 21:30N 30°04' W 093°24'3 5.2
2018-Jun-14 21:00N 30°04' W 093°21'2 2.9
2018-Jun-14 20:28N 30°05' W 093°20'0 0.0
2018-Jun-14 19:58N 30°05' W 093°20'0 0.0
2018-Jun-14 19:28N 30°05' W 093°20'0 0.0
2018-Jun-14 18:58N 30°05' W 093°20'0 0.0
2018-Jun-14 18:28N 30°05' W 093°20'0 0.0
2018-Jun-14 17:58N 30°05' W 093°20'0 0.0
2018-Jun-14 17:28N 30°05' W 093°20'0 0.0
2018-Jun-14 16:58N 30°05' W 093°20'0 0.0
2018-Jun-14 16:28N 30°05' W 093°20'0 0.0
2018-Jun-14 15:58N 30°05' W 093°20'0 0.0
2018-Jun-14 15:28N 30°05' W 093°20'0 0.0
2018-Jun-14 14:58N 30°05' W 093°20'0 0.0
2018-Jun-14 14:28N 30°05' W 093°20'0 0.0
2018-Jun-14 13:58N 30°05' W 093°20'0 0.0
2018-Jun-14 13:28N 30°05' W 093°20'0 0.0
2018-Jun-14 12:58N 30°05' W 093°20'0 0.0
2018-Jun-14 12:28N 30°05' W 093°20'0 0.0
2018-Jun-14 11:58N 30°05' W 093°20'0 0.0
2018-Jun-14 11:28N 30°05' W 093°20'0 0.0
2018-Jun-14 10:58N 30°05' W 093°20'0 0.0
2018-Jun-14 10:28N 30°05' W 093°20'0 0.0
2018-Jun-14 09:58N 30°05' W 093°20'0 0.0
2018-Jun-14 09:28N 30°05' W 093°20'0 0.0
2018-Jun-14 08:58N 30°05' W 093°20'0 0.0
2018-Jun-14 08:28N 30°05' W 093°20'0 0.0
2018-Jun-14 07:58N 30°05' W 093°20'0 0.0
2018-Jun-14 07:28N 30°05' W 093°20'0 0.0
2018-Jun-14 06:58N 30°05' W 093°20'0 0.0
2018-Jun-14 06:28N 30°05' W 093°20'0 0.0
2018-Jun-14 05:58N 30°05' W 093°20'0 0.0
2018-Jun-14 05:28N 30°05' W 093°20'0 0.0
2018-Jun-14 04:58N 30°05' W 093°20'0 0.0
2018-Jun-14 04:28N 30°05' W 093°20'0 0.0
2018-Jun-14 03:58N 30°05' W 093°20'0 0.0
2018-Jun-14 03:28N 30°05' W 093°20'0 0.0
2018-Jun-14 02:58N 30°05' W 093°20'0 0.0
2018-Jun-14 02:28N 30°05' W 093°20'0 0.0
2018-Jun-14 01:58N 30°05' W 093°20'0 0.0
2018-Jun-14 01:28N 30°05' W 093°20'0 0.0
2018-Jun-14 00:58N 30°05' W 093°20'0 0.0
2018-Jun-14 00:28N 30°05' W 093°20'0 0.0
2018-Jun-13 23:58N 30°05' W 093°20'0 0.0
2018-Jun-13 23:28N 30°05' W 093°20'0 0.0
2018-Jun-13 22:58N 30°05' W 093°20'0 0.0
2018-Jun-13 22:28N 30°05' W 093°20'0 0.0
2018-Jun-13 21:58N 30°05' W 093°20'0 0.0
2018-Jun-13 21:28N 30°05' W 093°20'0 0.0
2018-Jun-13 20:58N 30°05' W 093°20'0 0.0
2018-Jun-13 20:28N 30°05' W 093°20'0 0.0
2018-Jun-13 19:58N 30°05' W 093°20'0 0.0
2018-Jun-13 19:28N 30°05' W 093°20'0 0.0
2018-Jun-13 18:58N 30°05' W 093°20'0 0.0
2018-Jun-13 18:28N 30°05' W 093°20'0 0.0
2018-Jun-13 17:59N 30°05' W 093°20'0 0.5
2018-Jun-13 17:28N 30°05' W 093°20'0 0.6
2018-Jun-13 17:00N 30°05' W 093°20'0 0.2
2018-Jun-13 16:28N 30°05' W 093°20'0 0.0
2018-Jun-13 15:58N 30°05' W 093°20'0 0.0
2018-Jun-13 15:28N 30°05' W 093°20'0 0.0
2018-Jun-13 14:58N 30°05' W 093°20'0 0.0
2018-Jun-13 14:28N 30°05' W 093°20'0 0.0
2018-Jun-13 13:58N 30°05' W 093°20'0 0.0
2018-Jun-13 13:28N 30°05' W 093°20'0 0.0
2018-Jun-13 12:58N 30°05' W 093°20'0 0.0
2018-Jun-13 12:28N 30°05' W 093°20'0 0.0
2018-Jun-13 11:58N 30°05' W 093°20'0 0.0
2018-Jun-13 11:28N 30°05' W 093°20'0 0.0
2018-Jun-13 10:58N 30°05' W 093°20'0 0.0
2018-Jun-13 10:28N 30°05' W 093°20'0 0.0
2018-Jun-13 09:58N 30°05' W 093°20'0 0.0
2018-Jun-13 09:28N 30°05' W 093°20'0 0.0
2018-Jun-13 08:58N 30°05' W 093°20'0 0.0
2018-Jun-13 08:28N 30°05' W 093°20'0 0.0
2018-Jun-13 07:58N 30°05' W 093°20'0 0.0
2018-Jun-13 07:28N 30°05' W 093°20'0 0.0
2018-Jun-13 06:58N 30°05' W 093°20'0 0.0
2018-Jun-13 06:28N 30°05' W 093°20'0 0.0
2018-Jun-13 05:58N 30°05' W 093°20'0 0.0
2018-Jun-13 05:28N 30°05' W 093°20'0 0.0
2018-Jun-13 04:58N 30°05' W 093°20'0 0.0
2018-Jun-13 04:28N 30°05' W 093°20'0 0.0
2018-Jun-13 03:58N 30°05' W 093°20'0 0.0
2018-Jun-13 03:28N 30°05' W 093°20'0 0.0
2018-Jun-13 02:58N 30°05' W 093°20'0 0.0
2018-Jun-13 02:28N 30°05' W 093°20'0 0.1
2018-Jun-13 01:58N 30°05' W 093°20'0 0.1
2018-Jun-13 01:28N 30°05' W 093°20'0 0.0
2018-Jun-13 00:58N 30°05' W 093°20'0 0.0
2018-Jun-13 00:28N 30°05' W 093°20'0 0.0
2018-Jun-12 23:58N 30°05' W 093°20'0 0.0
2018-Jun-12 23:28N 30°05' W 093°20'0 0.0
2018-Jun-12 22:58N 30°05' W 093°20'0 0.0
2018-Jun-12 22:28N 30°05' W 093°20'0 0.0
2018-Jun-12 21:58N 30°05' W 093°20'0 0.0
2018-Jun-12 21:28N 30°05' W 093°20'0 0.0
2018-Jun-12 20:58N 30°05' W 093°20'0 0.0
2018-Jun-12 20:28N 30°05' W 093°20'0 0.0
2018-Jun-12 19:58N 30°05' W 093°20'0 0.0
2018-Jun-12 19:28N 30°05' W 093°20'0 0.0
2018-Jun-12 18:58N 30°05' W 093°20'0 0.0
2018-Jun-12 18:28N 30°05' W 093°20'0 0.0
2018-Jun-12 17:58N 30°05' W 093°20'0 0.0
2018-Jun-12 17:28N 30°05' W 093°20'0 0.0
2018-Jun-12 16:59N 30°05' W 093°20'2 3.9
2018-Jun-12 16:29N 30°04' W 093°21'0 0.0
2018-Jun-12 15:52N 30°04' W 093°21'2 5.5
2018-Jun-12 15:31N 30°05' W 093°20'0 0.1
2018-Jun-12 14:59N 30°05' W 093°20'0 0.0
2018-Jun-12 14:29N 30°05' W 093°20'0 0.0
2018-Jun-12 13:59N 30°05' W 093°20'0 0.0
2018-Jun-12 13:29N 30°05' W 093°20'0 0.0
2018-Jun-12 12:59N 30°05' W 093°20'0 0.0
2018-Jun-12 12:29N 30°05' W 093°20'0 0.0
2018-Jun-12 11:59N 30°05' W 093°20'0 0.1
2018-Jun-12 11:29N 30°05' W 093°20'0 0.0
2018-Jun-12 10:59N 30°05' W 093°20'0 0.0
2018-Jun-12 10:29N 30°05' W 093°20'0 0.0
2018-Jun-12 09:59N 30°05' W 093°20'0 0.0
2018-Jun-12 09:30N 30°05' W 093°20'0 0.0
2018-Jun-12 08:59N 30°05' W 093°20'0 0.0
2018-Jun-12 08:30N 30°05' W 093°20'0 0.0
2018-Jun-12 07:59N 30°05' W 093°20'0 0.0
2018-Jun-12 07:29N 30°05' W 093°20'0 0.0
2018-Jun-12 06:59N 30°05' W 093°20'0 0.0
2018-Jun-12 06:30N 30°05' W 093°20'0 0.0
2018-Jun-12 05:59N 30°05' W 093°20'0 0.0
2018-Jun-12 05:29N 30°05' W 093°20'0 0.0
2018-Jun-12 04:59N 30°05' W 093°20'0 0.0
2018-Jun-12 04:29N 30°05' W 093°20'0 0.0
2018-Jun-12 03:59N 30°05' W 093°20'0 0.0
2018-Jun-12 03:29N 30°05' W 093°20'0 0.0
2018-Jun-12 02:59N 30°05' W 093°20'0 0.0
2018-Jun-12 02:29N 30°05' W 093°20'0 0.0
2018-Jun-12 01:59N 30°05' W 093°20'0 0.0
2018-Jun-12 01:29N 30°05' W 093°20'0 0.0
2018-Jun-12 01:00N 30°05' W 093°20'0 0.0
2018-Jun-12 00:29N 30°05' W 093°20'0 0.0
2018-Jun-11 23:59N 30°05' W 093°20'0 0.0
2018-Jun-11 23:29N 30°05' W 093°20'0 0.0
2018-Jun-11 22:59N 30°05' W 093°20'0 0.0
2018-Jun-11 22:29N 30°05' W 093°20'0 0.0
2018-Jun-11 21:59N 30°05' W 093°20'0 0.0
2018-Jun-11 21:29N 30°05' W 093°20'0 0.0
2018-Jun-11 21:00N 30°05' W 093°20'0 0.0
2018-Jun-11 20:29N 30°05' W 093°20'0 0.0
2018-Jun-11 19:59N 30°05' W 093°20'0 0.0
2018-Jun-11 19:29N 30°05' W 093°20'0 0.0
2018-Jun-11 18:59N 30°05' W 093°20'0 0.0
2018-Jun-11 18:29N 30°05' W 093°20'0 0.0
2018-Jun-11 18:00N 30°05' W 093°20'0 0.0
2018-Jun-11 17:27N 30°05' W 093°20'0 0.0
2018-Jun-11 16:59N 30°05' W 093°20'0 0.0
2018-Jun-11 16:29N 30°05' W 093°20'0 0.0
2018-Jun-11 15:59N 30°05' W 093°20'0 0.0
2018-Jun-11 15:29N 30°05' W 093°20'0 0.0
2018-Jun-11 14:59N 30°05' W 093°20'0 0.0
2018-Jun-11 14:29N 30°05' W 093°20'0 0.0
2018-Jun-11 13:59N 30°05' W 093°20'0 0.0
2018-Jun-11 13:29N 30°05' W 093°20'0 0.0
2018-Jun-11 12:59N 30°05' W 093°20'0 0.0
2018-Jun-11 12:29N 30°05' W 093°20'0 0.0
2018-Jun-11 11:59N 30°05' W 093°20'0 0.0
2018-Jun-11 11:29N 30°05' W 093°20'0 0.0
2018-Jun-11 10:59N 30°05' W 093°20'0 0.0
2018-Jun-11 10:29N 30°05' W 093°20'0 0.0
2018-Jun-11 09:59N 30°05' W 093°20'0 0.0
2018-Jun-11 09:29N 30°05' W 093°20'0 0.0
2018-Jun-11 08:59N 30°05' W 093°20'0 0.0
2018-Jun-11 08:29N 30°05' W 093°20'0 0.0
2018-Jun-11 07:59N 30°05' W 093°20'0 0.0
2018-Jun-11 07:29N 30°05' W 093°20'0 0.0
2018-Jun-11 06:59N 30°05' W 093°20'0 0.0
2018-Jun-11 06:29N 30°05' W 093°20'0 0.0
2018-Jun-11 05:59N 30°05' W 093°20'0 0.0
2018-Jun-11 05:29N 30°05' W 093°20'0 0.0
2018-Jun-11 04:59N 30°05' W 093°20'0 0.0
2018-Jun-11 04:29N 30°05' W 093°20'0 0.0
2018-Jun-11 03:59N 30°05' W 093°20'0 0.0
2018-Jun-11 03:29N 30°05' W 093°20'0 0.0
2018-Jun-11 02:59N 30°05' W 093°20'0 0.0
2018-Jun-11 02:29N 30°05' W 093°20'0 0.0
2018-Jun-11 01:59N 30°05' W 093°20'0 0.0
2018-Jun-11 01:30N 30°05' W 093°20'0 0.0
2018-Jun-11 01:00N 30°05' W 093°20'0 0.0
2018-Jun-11 00:30N 30°05' W 093°20'0 0.0
2018-Jun-11 00:00N 30°05' W 093°20'0 0.1
2018-Jun-10 23:30N 30°05' W 093°20'0 0.0
2018-Jun-10 23:00N 30°05' W 093°20'0 0.2
2018-Jun-10 22:30N 30°05' W 093°20'1 2.6
2018-Jun-10 22:00N 30°04' W 093°21'2 5.0
2018-Jun-10 21:30N 30°04' W 093°24'3 5.9
2018-Jun-10 21:00N 30°04' W 093°27'3 5.8
2018-Jun-10 20:30N 30°04' W 093°30'3 5.6
2018-Jun-10 19:59N 30°04' W 093°34'3 5.8
2018-Jun-10 19:28N 30°04' W 093°37'3 5.6
2018-Jun-10 18:58N 30°04' W 093°40'3 5.9
2018-Jun-10 18:30N 30°03' W 093°43'3 6.1
2018-Jun-10 18:00N 30°01' W 093°46'3 6.5
2018-Jun-10 17:30N 29°59' W 093°49'3 5.8
2018-Jun-10 17:00N 29°59' W 093°52'2 4.4
2018-Jun-10 16:30N 29°60' W 093°55'0 0.0
2018-Jun-10 16:00N 29°60' W 093°55'0 0.0
2018-Jun-10 15:30N 29°60' W 093°55'0 0.0
2018-Jun-10 15:00N 29°60' W 093°55'0 0.0
2018-Jun-10 14:30N 29°60' W 093°55'0 0.0
2018-Jun-10 13:30N 29°60' W 093°55'0 0.0
2018-Jun-10 13:00N 29°60' W 093°55'0 0.0
2018-Jun-10 12:30N 29°60' W 093°55'0 0.0
2018-Jun-10 12:00N 29°60' W 093°55'0 0.0
2018-Jun-10 11:30N 29°60' W 093°55'0 0.0
2018-Jun-10 11:00N 29°60' W 093°55'0 0.0
2018-Jun-10 10:30N 29°60' W 093°55'0 0.0
2018-Jun-10 10:00N 29°60' W 093°55'0 0.0
2018-Jun-10 09:30N 29°60' W 093°55'0 0.0
2018-Jun-10 09:00N 29°60' W 093°55'0 0.0
2018-Jun-10 08:30N 29°60' W 093°55'0 0.0
2018-Jun-10 08:00N 29°60' W 093°55'0 0.0
2018-Jun-10 07:30N 29°60' W 093°55'0 0.0
2018-Jun-10 07:00N 29°60' W 093°55'0 0.0
2018-Jun-10 06:30N 29°60' W 093°55'0 0.0
2018-Jun-10 06:00N 29°60' W 093°55'0 0.0
2018-Jun-10 05:30N 29°60' W 093°55'0 0.0
2018-Jun-10 05:00N 29°60' W 093°55'0 0.0
2018-Jun-10 04:30N 29°60' W 093°55'0 0.0
2018-Jun-10 04:00N 29°60' W 093°55'0 0.0
2018-Jun-10 03:30N 29°60' W 093°55'0 0.0
2018-Jun-10 03:00N 29°60' W 093°55'0 0.0
2018-Jun-10 02:30N 29°60' W 093°55'0 0.0
2018-Jun-10 02:00N 29°60' W 093°55'0 0.0
2018-Jun-10 01:30N 29°60' W 093°55'0 0.0
2018-Jun-10 01:00N 29°60' W 093°55'0 0.0
2018-Jun-10 00:30N 29°60' W 093°55'0 0.0
2018-Jun-10 00:00N 29°60' W 093°55'0 0.0
2018-Jun-09 23:30N 29°60' W 093°55'0 0.0
2018-Jun-09 23:00N 29°60' W 093°55'0 0.0
2018-Jun-09 22:30N 29°60' W 093°55'0 0.0
2018-Jun-09 22:00N 29°60' W 093°55'1 1.8
2018-Jun-09 21:30N 29°59' W 093°54'2 4.6
2018-Jun-09 21:00N 29°58' W 093°51'0 0.0
2018-Jun-09 20:30N 29°58' W 093°51'0 0.0
2018-Jun-09 20:00N 29°58' W 093°51'0 0.0
2018-Jun-09 19:30N 29°58' W 093°51'0 0.0
2018-Jun-09 19:00N 29°58' W 093°51'2 4.0
2018-Jun-09 18:30N 29°59' W 093°53'1 2.5
2018-Jun-09 18:00N 29°60' W 093°55'0 0.0
2018-Jun-09 17:30N 29°60' W 093°55'0 0.0
2018-Jun-09 17:00N 29°60' W 093°55'0 0.0
2018-Jun-09 16:30N 29°60' W 093°55'0 0.0
2018-Jun-09 16:00N 29°60' W 093°55'0 0.0
2018-Jun-09 15:30N 29°60' W 093°55'0 0.0
2018-Jun-09 14:30N 29°60' W 093°55'0 0.0
2018-Jun-09 14:00N 29°60' W 093°55'0 0.0
2018-Jun-09 13:30N 29°60' W 093°55'0 0.0
2018-Jun-09 13:00N 29°60' W 093°55'0 0.0
2018-Jun-09 12:30N 29°60' W 093°55'0 0.0
2018-Jun-09 12:00N 29°60' W 093°55'0 0.0
2018-Jun-09 11:30N 29°60' W 093°55'0 0.0
2018-Jun-09 11:00N 29°60' W 093°55'0 0.0
2018-Jun-09 10:30N 29°60' W 093°55'0 0.0
2018-Jun-09 10:00N 29°60' W 093°55'0 0.0
2018-Jun-09 09:30N 29°60' W 093°55'0 0.0
2018-Jun-09 09:00N 29°60' W 093°55'0 0.0
2018-Jun-09 08:30N 29°60' W 093°55'0 0.0
2018-Jun-09 08:00N 29°60' W 093°55'0 0.0
2018-Jun-09 07:30N 29°60' W 093°55'0 0.0
2018-Jun-09 07:00N 29°60' W 093°55'0 0.0
2018-Jun-09 06:30N 29°60' W 093°55'0 0.0
2018-Jun-09 06:00N 29°60' W 093°55'0 0.0
2018-Jun-09 05:30N 29°60' W 093°55'0 0.0
2018-Jun-09 05:00N 29°60' W 093°55'0 0.0
2018-Jun-09 04:30N 29°60' W 093°55'0 0.0
2018-Jun-09 04:00N 29°60' W 093°55'0 0.0
2018-Jun-09 03:30N 29°60' W 093°55'0 0.0
2018-Jun-09 03:00N 29°60' W 093°55'0 0.0
2018-Jun-09 02:30N 29°60' W 093°55'0 0.9
2018-Jun-09 02:00N 29°59' W 093°54'3 6.0
2018-Jun-09 01:31N 30°01' W 093°57'  

Dump ship's entire track history